Terminal Aerodrome Forecast
Issued by NWS

Home | Current Version | Previous Version | Text Only | Print | Product List | Glossary Off
Versions: 1 2 3 4 5 6 7 8 9 10 11 12 13 14 15 16 17 18 19 20

763
FTUS43 KIWX 231725
TAFSBN
TAF
KSBN 231725Z 2318/2418 20010KT P6SM FEW045 SCT250
     FM240200 16005KT P6SM SCT060 BKN200
     FM241100 18010KT P6SM BKN020=

USA.gov is the U.S. government's official web portal to all federal, state and local government web resources and services.